BTK6344 WIII-WAHI
Flight info
| Callsign | BTK6344 |
|---|---|
| Flight time | 1h 3m |
| Altitude | 31000 |
| Route | PW W17 CLP |
| Aircraft | B738/M-SDE2E3FGHIRWXY/LB1 |
Departure
| Time | 2026-04-24 06:57 |
|---|---|
| Airport | Soekarno-Hatta International Airport (WIII) |
Arrival
| Time | 2026-04-24 08:01 |
|---|---|
| Airport | Yogyakarta International Airport (WAHI) |
| Time | Latitude | Longitude | Altitude | Speed | Heading |
|---|---|---|---|---|---|
| 2026-04-24 06:12 | -6.12211 | 106.65013 | 37 ft | 0 kts | 170° |
| 2026-04-24 06:28 | -6.12210 | 106.65013 | 37 ft | 0 kts | 170° |
| 2026-04-24 06:39 | -6.12196 | 106.65011 | 36 ft | 4 kts | 170° |
| 2026-04-24 06:39 | -6.12169 | 106.65006 | 34 ft | 4 kts | 169° |
| 2026-04-24 06:40 | -6.12142 | 106.65001 | 35 ft | 4 kts | 171° |
| 2026-04-24 06:40 | -6.12116 | 106.64997 | 37 ft | 4 kts | 177° |
| 2026-04-24 06:40 | -6.12089 | 106.64998 | 34 ft | 4 kts | 189° |
| 2026-04-24 06:40 | -6.12075 | 106.65000 | 34 ft | 0 kts | 189° |
| 2026-04-24 06:44 | -6.12082 | 106.64999 | 33 ft | 3 kts | 192° |
| 2026-04-24 06:45 | -6.12120 | 106.64978 | 55 ft | 8 kts | 221° |
| 2026-04-24 06:45 | -6.12144 | 106.64926 | 37 ft | 8 kts | 256° |
| 2026-04-24 06:45 | -6.12162 | 106.64874 | 36 ft | 8 kts | 245° |
| 2026-04-24 06:45 | -6.12191 | 106.64817 | 37 ft | 6 kts | 243° |
| 2026-04-24 06:46 | -6.12201 | 106.64759 | 37 ft | 10 kts | 282° |
| 2026-04-24 06:46 | -6.12128 | 106.64712 | 37 ft | 9 kts | 340° |
| 2026-04-24 06:46 | -6.12081 | 106.64676 | 37 ft | 9 kts | 289° |
| 2026-04-24 06:46 | -6.12093 | 106.64617 | 36 ft | 9 kts | 249° |
| 2026-04-24 06:47 | -6.12114 | 106.64564 | 37 ft | 8 kts | 248° |
| 2026-04-24 06:47 | -6.12136 | 106.64509 | 36 ft | 8 kts | 248° |
| 2026-04-24 06:47 | -6.12157 | 106.64456 | 37 ft | 9 kts | 249° |
| 2026-04-24 06:47 | -6.12171 | 106.64417 | 37 ft | 5 kts | 251° |
| 2026-04-24 06:48 | -6.12179 | 106.64359 | 37 ft | 12 kts | 278° |
| 2026-04-24 06:48 | -6.12140 | 106.64299 | 37 ft | 9 kts | 298° |
| 2026-04-24 06:48 | -6.12144 | 106.64240 | 37 ft | 9 kts | 249° |
| 2026-04-24 06:48 | -6.12167 | 106.64185 | 36 ft | 8 kts | 248° |
| 2026-04-24 06:49 | -6.12188 | 106.64131 | 35 ft | 8 kts | 248° |
| 2026-04-24 06:49 | -6.12209 | 106.64078 | 36 ft | 8 kts | 248° |
| 2026-04-24 06:49 | -6.12229 | 106.64027 | 38 ft | 8 kts | 248° |
| 2026-04-24 06:49 | -6.12249 | 106.63978 | 38 ft | 7 kts | 252° |
| 2026-04-24 06:50 | -6.12250 | 106.63927 | 38 ft | 7 kts | 284° |
| 2026-04-24 06:50 | -6.12219 | 106.63891 | 38 ft | 7 kts | 335° |
| 2026-04-24 06:50 | -6.12214 | 106.63889 | 38 ft | 0 kts | 336° |
| 2026-04-24 06:55 | -6.12188 | 106.63880 | 38 ft | 12 kts | 348° |
| 2026-04-24 06:55 | -6.12101 | 106.63904 | 38 ft | 13 kts | 35° |
| 2026-04-24 06:55 | -6.12053 | 106.63979 | 36 ft | 12 kts | 68° |
| 2026-04-24 06:56 | -6.12050 | 106.63986 | 37 ft | 0 kts | 68° |
| 2026-04-24 06:56 | -6.12047 | 106.63995 | 37 ft | 8 kts | 68° |
| 2026-04-24 06:56 | -6.11963 | 106.64207 | 37 ft | 73 kts | 68° |
| 2026-04-24 06:57 | -6.11667 | 106.64940 | 40 ft | 150 kts | 65° |
| 2026-04-24 06:57 | -6.11220 | 106.66027 | 575 ft | 177 kts | 68° |
| 2026-04-24 06:57 | -6.10776 | 106.67168 | 1663 ft | 172 kts | 66° |
| 2026-04-24 06:57 | -6.10106 | 106.68171 | 2522 ft | 186 kts | 47° |
| 2026-04-24 06:58 | -6.09110 | 106.69170 | 2789 ft | 217 kts | 47° |
| 2026-04-24 06:58 | -6.07998 | 106.70306 | 3144 ft | 239 kts | 48° |
| 2026-04-24 06:58 | -6.06771 | 106.71581 | 3612 ft | 258 kts | 48° |
| 2026-04-24 06:58 | -6.05538 | 106.72878 | 4408 ft | 261 kts | 48° |
| 2026-04-24 06:59 | -6.04296 | 106.74199 | 4800 ft | 259 kts | 48° |
| 2026-04-24 06:59 | -6.03061 | 106.75524 | 4944 ft | 261 kts | 49° |
| 2026-04-24 06:59 | -6.01812 | 106.76874 | 4973 ft | 266 kts | 49° |
| 2026-04-24 06:59 | -6.00547 | 106.78243 | 4975 ft | 267 kts | 49° |
| 2026-04-24 07:00 | -5.99285 | 106.79608 | 4977 ft | 267 kts | 49° |
| 2026-04-24 07:00 | -5.98238 | 106.81123 | 4969 ft | 265 kts | 71° |
| 2026-04-24 07:00 | -5.97995 | 106.82940 | 5160 ft | 264 kts | 93° |
| 2026-04-24 07:00 | -5.98385 | 106.84738 | 5948 ft | 268 kts | 106° |
| 2026-04-24 07:01 | -5.98982 | 106.86513 | 6830 ft | 268 kts | 107° |
| 2026-04-24 07:01 | -5.99612 | 106.88309 | 7537 ft | 277 kts | 108° |
| 2026-04-24 07:01 | -6.00255 | 106.90132 | 8417 ft | 276 kts | 108° |
| 2026-04-24 07:01 | -6.00899 | 106.91971 | 9193 ft | 282 kts | 107° |
| 2026-04-24 07:02 | -6.01551 | 106.93845 | 9986 ft | 285 kts | 107° |
| 2026-04-24 07:02 | -6.02210 | 106.95752 | 10698 ft | 290 kts | 107° |
| 2026-04-24 07:02 | -6.02871 | 106.97673 | 11456 ft | 295 kts | 108° |
| 2026-04-24 07:02 | -6.03545 | 106.99632 | 12219 ft | 296 kts | 107° |
| 2026-04-24 07:03 | -6.04219 | 107.01596 | 12964 ft | 301 kts | 107° |
| 2026-04-24 07:03 | -6.04903 | 107.03592 | 13698 ft | 304 kts | 107° |
| 2026-04-24 07:03 | -6.05597 | 107.05619 | 14278 ft | 309 kts | 107° |
| 2026-04-24 07:03 | -6.06297 | 107.07663 | 14977 ft | 311 kts | 108° |
| 2026-04-24 07:04 | -6.07007 | 107.09736 | 15601 ft | 315 kts | 107° |
| 2026-04-24 07:04 | -6.07724 | 107.11833 | 16237 ft | 319 kts | 107° |
| 2026-04-24 07:04 | -6.08451 | 107.13958 | 16662 ft | 331 kts | 107° |
| 2026-04-24 07:04 | -6.09261 | 107.16230 | 16650 ft | 356 kts | 112° |
| 2026-04-24 07:05 | -6.10713 | 107.18315 | 16751 ft | 377 kts | 135° |
| 2026-04-24 07:05 | -6.12914 | 107.19855 | 16932 ft | 394 kts | 148° |
| 2026-04-24 07:05 | -6.15323 | 107.21222 | 17296 ft | 401 kts | 149° |
| 2026-04-24 07:05 | -6.17777 | 107.22586 | 17798 ft | 405 kts | 149° |
| 2026-04-24 07:06 | -6.20248 | 107.23971 | 18252 ft | 408 kts | 148° |
| 2026-04-24 07:06 | -6.22725 | 107.25380 | 18708 ft | 410 kts | 149° |
| 2026-04-24 07:06 | -6.25208 | 107.26806 | 19149 ft | 412 kts | 148° |
| 2026-04-24 07:06 | -6.27702 | 107.28247 | 19551 ft | 415 kts | 148° |
| 2026-04-24 07:07 | -6.30213 | 107.29700 | 19967 ft | 418 kts | 148° |
| 2026-04-24 07:07 | -6.32738 | 107.31159 | 20398 ft | 419 kts | 148° |
| 2026-04-24 07:07 | -6.37823 | 107.34094 | 21209 ft | 424 kts | 148° |
| 2026-04-24 07:08 | -6.40387 | 107.35574 | 21599 ft | 427 kts | 149° |
| 2026-04-24 07:08 | -6.42966 | 107.37063 | 21988 ft | 429 kts | 149° |
| 2026-04-24 07:08 | -6.45562 | 107.38562 | 22372 ft | 431 kts | 149° |
| 2026-04-24 07:08 | -6.48169 | 107.40069 | 22719 ft | 433 kts | 149° |
| 2026-04-24 07:09 | -6.50788 | 107.41582 | 23083 ft | 435 kts | 149° |
| 2026-04-24 07:09 | -6.53424 | 107.43105 | 23421 ft | 438 kts | 150° |
| 2026-04-24 07:09 | -6.56079 | 107.44617 | 23698 ft | 440 kts | 153° |
| 2026-04-24 07:09 | -6.58970 | 107.45624 | 23960 ft | 442 kts | 168° |
| 2026-04-24 07:10 | -6.61953 | 107.46172 | 24288 ft | 442 kts | 169° |
| 2026-04-24 07:10 | -6.64992 | 107.46706 | 24559 ft | 445 kts | 170° |
| 2026-04-24 07:10 | -6.68044 | 107.47257 | 24840 ft | 447 kts | 169° |
| 2026-04-24 07:10 | -6.71101 | 107.47834 | 25127 ft | 448 kts | 169° |
| 2026-04-24 07:11 | -6.74165 | 107.48430 | 25422 ft | 449 kts | 168° |
| 2026-04-24 07:11 | -6.77239 | 107.49037 | 25701 ft | 451 kts | 168° |
| 2026-04-24 07:11 | -6.80322 | 107.49647 | 25967 ft | 452 kts | 168° |
| 2026-04-24 07:11 | -6.83409 | 107.50261 | 26345 ft | 451 kts | 167° |
| 2026-04-24 07:12 | -6.86326 | 107.51348 | 26773 ft | 448 kts | 149° |
| 2026-04-24 07:12 | -6.88767 | 107.53270 | 27208 ft | 446 kts | 134° |
| 2026-04-24 07:12 | -6.90634 | 107.55747 | 27623 ft | 445 kts | 120° |
| 2026-04-24 07:12 | -6.92064 | 107.58499 | 28055 ft | 444 kts | 117° |
| 2026-04-24 07:13 | -6.93434 | 107.61285 | 28386 ft | 445 kts | 116° |
| 2026-04-24 07:13 | -6.94789 | 107.64082 | 28750 ft | 445 kts | 116° |
| 2026-04-24 07:13 | -6.96150 | 107.66880 | 29184 ft | 443 kts | 117° |
| 2026-04-24 07:13 | -6.97511 | 107.69652 | 29693 ft | 441 kts | 117° |
| 2026-04-24 07:14 | -6.98877 | 107.72410 | 30086 ft | 440 kts | 117° |
| 2026-04-24 07:14 | -7.00251 | 107.75163 | 30417 ft | 440 kts | 117° |
| 2026-04-24 07:14 | -7.01621 | 107.77897 | 30824 ft | 437 kts | 117° |
| 2026-04-24 07:14 | -7.02999 | 107.80642 | 30852 ft | 441 kts | 117° |
| 2026-04-24 07:15 | -7.05767 | 107.86149 | 30858 ft | 437 kts | 117° |
| 2026-04-24 07:15 | -7.08505 | 107.91602 | 30866 ft | 437 kts | 117° |
| 2026-04-24 07:16 | -7.11257 | 107.97085 | 30866 ft | 440 kts | 117° |
| 2026-04-24 07:16 | -7.14018 | 108.02589 | 30856 ft | 441 kts | 117° |
| 2026-04-24 07:17 | -7.16789 | 108.08117 | 30846 ft | 442 kts | 117° |
| 2026-04-24 07:17 | -7.19556 | 108.13637 | 30848 ft | 441 kts | 117° |
| 2026-04-24 07:18 | -7.22314 | 108.19141 | 30818 ft | 439 kts | 117° |
| 2026-04-24 07:18 | -7.25057 | 108.24619 | 30827 ft | 438 kts | 117° |
| 2026-04-24 07:19 | -7.27801 | 108.30099 | 30837 ft | 438 kts | 117° |
| 2026-04-24 07:19 | -7.30540 | 108.35572 | 30833 ft | 438 kts | 117° |
| 2026-04-24 07:20 | -7.33283 | 108.41053 | 30837 ft | 438 kts | 117° |
| 2026-04-24 07:20 | -7.36041 | 108.46569 | 30821 ft | 446 kts | 117° |
| 2026-04-24 07:21 | -7.38860 | 108.52206 | 30819 ft | 454 kts | 117° |
| 2026-04-24 07:21 | -7.41705 | 108.57900 | 30808 ft | 456 kts | 117° |
| 2026-04-24 07:22 | -7.44561 | 108.63616 | 30802 ft | 457 kts | 117° |
| 2026-04-24 07:22 | -7.47417 | 108.69338 | 30801 ft | 457 kts | 117° |
| 2026-04-24 07:23 | -7.50269 | 108.75051 | 30793 ft | 456 kts | 117° |
| 2026-04-24 07:23 | -7.53097 | 108.80718 | 30789 ft | 455 kts | 117° |
| 2026-04-24 07:24 | -7.55930 | 108.86400 | 30795 ft | 453 kts | 117° |
| 2026-04-24 07:24 | -7.58759 | 108.92075 | 30798 ft | 452 kts | 117° |
| 2026-04-24 07:25 | -7.61574 | 108.97723 | 30626 ft | 449 kts | 117° |
| 2026-04-24 07:25 | -7.62965 | 109.00515 | 30273 ft | 442 kts | 117° |
| 2026-04-24 07:25 | -7.64297 | 109.03294 | 29830 ft | 439 kts | 111° |
| 2026-04-24 07:26 | -7.64990 | 109.06269 | 29342 ft | 436 kts | 97° |
| 2026-04-24 07:26 | -7.65324 | 109.09287 | 28863 ft | 431 kts | 97° |
| 2026-04-24 07:26 | -7.65652 | 109.12280 | 28374 ft | 428 kts | 97° |
| 2026-04-24 07:26 | -7.65988 | 109.15247 | 27906 ft | 424 kts | 97° |
| 2026-04-24 07:27 | -7.66333 | 109.18188 | 27448 ft | 421 kts | 97° |
| 2026-04-24 07:27 | -7.66685 | 109.21105 | 26992 ft | 418 kts | 97° |
| 2026-04-24 07:27 | -7.67039 | 109.23997 | 26538 ft | 415 kts | 97° |
| 2026-04-24 07:27 | -7.67396 | 109.26877 | 26095 ft | 412 kts | 97° |
| 2026-04-24 07:28 | -7.67751 | 109.29732 | 25646 ft | 410 kts | 97° |
| 2026-04-24 07:28 | -7.68105 | 109.32577 | 25187 ft | 408 kts | 97° |
| 2026-04-24 07:28 | -7.68456 | 109.35403 | 24733 ft | 406 kts | 97° |
| 2026-04-24 07:28 | -7.68806 | 109.38220 | 24283 ft | 405 kts | 97° |
| 2026-04-24 07:29 | -7.69155 | 109.41033 | 23828 ft | 403 kts | 97° |
| 2026-04-24 07:29 | -7.69501 | 109.43832 | 23383 ft | 402 kts | 97° |
| 2026-04-24 07:29 | -7.69847 | 109.46624 | 22873 ft | 400 kts | 97° |
| 2026-04-24 07:29 | -7.70190 | 109.49395 | 22412 ft | 397 kts | 97° |
| 2026-04-24 07:30 | -7.70531 | 109.52149 | 21960 ft | 394 kts | 97° |
| 2026-04-24 07:30 | -7.70869 | 109.54881 | 21528 ft | 391 kts | 97° |
| 2026-04-24 07:30 | -7.71199 | 109.57555 | 21101 ft | 388 kts | 96° |
| 2026-04-24 07:30 | -7.71530 | 109.60236 | 20674 ft | 385 kts | 96° |
| 2026-04-24 07:31 | -7.71861 | 109.62913 | 20251 ft | 382 kts | 96° |
| 2026-04-24 07:31 | -7.72187 | 109.65564 | 19828 ft | 380 kts | 96° |
| 2026-04-24 07:31 | -7.72512 | 109.68198 | 19397 ft | 378 kts | 96° |
| 2026-04-24 07:31 | -7.72835 | 109.70817 | 18977 ft | 376 kts | 96° |
| 2026-04-24 07:32 | -7.73161 | 109.73465 | 18538 ft | 374 kts | 95° |
| 2026-04-24 07:32 | -7.73482 | 109.76069 | 18076 ft | 374 kts | 95° |
| 2026-04-24 07:32 | -7.73796 | 109.78624 | 17602 ft | 372 kts | 96° |
| 2026-04-24 07:32 | -7.74113 | 109.81201 | 17167 ft | 369 kts | 95° |
| 2026-04-24 07:33 | -7.74427 | 109.83754 | 16749 ft | 365 kts | 95° |
| 2026-04-24 07:33 | -7.74741 | 109.86319 | 16331 ft | 362 kts | 96° |
| 2026-04-24 07:33 | -7.75043 | 109.88793 | 15936 ft | 359 kts | 96° |
| 2026-04-24 07:33 | -7.75471 | 109.91263 | 15522 ft | 358 kts | 107° |
| 2026-04-24 07:34 | -7.76686 | 109.93447 | 15125 ft | 360 kts | 130° |
| 2026-04-24 07:34 | -7.78606 | 109.95037 | 14785 ft | 358 kts | 151° |
| 2026-04-24 07:34 | -7.80937 | 109.95833 | 14590 ft | 354 kts | 170° |
| 2026-04-24 07:34 | -7.83377 | 109.95834 | 14381 ft | 352 kts | 190° |
| 2026-04-24 07:35 | -7.85742 | 109.95269 | 14211 ft | 347 kts | 194° |
| 2026-04-24 07:35 | -7.88070 | 109.94620 | 14018 ft | 349 kts | 195° |
| 2026-04-24 07:35 | -7.89654 | 109.94170 | 13892 ft | 351 kts | 195° |
| 2026-04-24 07:35 | -7.92793 | 109.93291 | 13631 ft | 354 kts | 195° |
| 2026-04-24 07:36 | -7.94391 | 109.92852 | 13475 ft | 352 kts | 195° |
| 2026-04-24 07:36 | -7.96715 | 109.92223 | 13267 ft | 349 kts | 194° |
| 2026-04-24 07:36 | -7.99054 | 109.91596 | 13071 ft | 347 kts | 194° |
| 2026-04-24 07:36 | -8.01412 | 109.90966 | 12871 ft | 345 kts | 194° |
| 2026-04-24 07:37 | -8.03702 | 109.90355 | 12513 ft | 349 kts | 194° |
| 2026-04-24 07:37 | -8.06075 | 109.89730 | 12023 ft | 354 kts | 194° |
| 2026-04-24 07:37 | -8.08466 | 109.89101 | 11525 ft | 355 kts | 194° |
| 2026-04-24 07:37 | -8.10860 | 109.88471 | 11031 ft | 355 kts | 194° |
| 2026-04-24 07:38 | -8.13289 | 109.88199 | 10698 ft | 347 kts | 172° |
| 2026-04-24 07:38 | -8.15511 | 109.88855 | 10592 ft | 323 kts | 150° |
| 2026-04-24 07:38 | -8.17243 | 109.90163 | 10474 ft | 302 kts | 131° |
| 2026-04-24 07:38 | -8.18492 | 109.91788 | 10276 ft | 287 kts | 118° |
| 2026-04-24 07:39 | -8.19256 | 109.93619 | 9855 ft | 281 kts | 104° |
| 2026-04-24 07:39 | -8.19662 | 109.95539 | 9352 ft | 279 kts | 90° |
| 2026-04-24 07:39 | -8.19285 | 109.97416 | 8847 ft | 273 kts | 61° |
| 2026-04-24 07:39 | -8.18132 | 109.98901 | 8400 ft | 268 kts | 39° |
| 2026-04-24 07:40 | -8.16540 | 109.99835 | 7929 ft | 266 kts | 18° |
| 2026-04-24 07:40 | -8.14753 | 110.00281 | 7503 ft | 264 kts | 13° |
| 2026-04-24 07:40 | -8.12978 | 110.00686 | 7144 ft | 258 kts | 19° |
| 2026-04-24 07:40 | -8.11513 | 110.01650 | 6841 ft | 252 kts | 45° |
| 2026-04-24 07:41 | -8.10385 | 110.02983 | 6487 ft | 249 kts | 50° |
| 2026-04-24 07:41 | -8.09301 | 110.04342 | 6077 ft | 248 kts | 50° |
| 2026-04-24 07:41 | -8.08224 | 110.05697 | 5671 ft | 247 kts | 50° |
| 2026-04-24 07:41 | -8.07147 | 110.07045 | 5276 ft | 245 kts | 50° |
| 2026-04-24 07:42 | -8.06076 | 110.08378 | 4903 ft | 243 kts | 50° |
| 2026-04-24 07:42 | -8.05017 | 110.09692 | 4599 ft | 239 kts | 50° |
| 2026-04-24 07:42 | -8.03998 | 110.10954 | 4458 ft | 227 kts | 50° |
| 2026-04-24 07:42 | -8.03036 | 110.12145 | 4394 ft | 212 kts | 50° |
| 2026-04-24 07:43 | -8.02133 | 110.13259 | 4304 ft | 198 kts | 49° |
| 2026-04-24 07:43 | -8.01119 | 110.14114 | 4188 ft | 185 kts | 33° |
| 2026-04-24 07:43 | -8.00102 | 110.14799 | 4061 ft | 168 kts | 35° |
| 2026-04-24 07:43 | -7.99159 | 110.15456 | 3756 ft | 162 kts | 36° |
| 2026-04-24 07:44 | -7.98244 | 110.16098 | 3485 ft | 154 kts | 37° |
| 2026-04-24 07:44 | -7.97392 | 110.16694 | 3132 ft | 150 kts | 36° |
| 2026-04-24 07:44 | -7.96406 | 110.17022 | 2601 ft | 157 kts | 356° |
| 2026-04-24 07:44 | -7.95473 | 110.16450 | 2065 ft | 161 kts | 303° |
| 2026-04-24 07:45 | -7.94880 | 110.15569 | 1806 ft | 146 kts | 305° |
| 2026-04-24 07:45 | -7.94294 | 110.14744 | 1638 ft | 146 kts | 304° |
| 2026-04-24 07:45 | -7.93695 | 110.13899 | 1429 ft | 149 kts | 304° |
| 2026-04-24 07:45 | -7.93204 | 110.12989 | 1270 ft | 149 kts | 291° |
| 2026-04-24 07:46 | -7.92833 | 110.12015 | 1060 ft | 148 kts | 288° |
| 2026-04-24 07:46 | -7.92482 | 110.11069 | 891 ft | 144 kts | 287° |
| 2026-04-24 07:46 | -7.92139 | 110.10135 | 687 ft | 142 kts | 287° |
| 2026-04-24 07:46 | -7.91805 | 110.09215 | 521 ft | 142 kts | 289° |
| 2026-04-24 07:47 | -7.91473 | 110.08275 | 310 ft | 140 kts | 288° |
| 2026-04-24 07:47 | -7.91133 | 110.07361 | 163 ft | 140 kts | 289° |
| 2026-04-24 07:47 | -7.90795 | 110.06464 | 54 ft | 131 kts | 285° |
| 2026-04-24 07:47 | -7.90461 | 110.05469 | 211 ft | 175 kts | 287° |
| 2026-04-24 07:48 | -7.90029 | 110.04192 | 880 ft | 211 kts | 290° |
| 2026-04-24 07:48 | -7.89468 | 110.02623 | 1017 ft | 264 kts | 288° |
| 2026-04-24 07:48 | -7.88795 | 110.00713 | 1024 ft | 313 kts | 288° |
| 2026-04-24 07:48 | -7.88016 | 109.98491 | 1035 ft | 360 kts | 288° |
| 2026-04-24 07:49 | -7.87154 | 109.96003 | 1412 ft | 379 kts | 288° |
| 2026-04-24 07:49 | -7.86320 | 109.93587 | 1702 ft | 352 kts | 289° |
| 2026-04-24 07:49 | -7.85555 | 109.91311 | 1852 ft | 333 kts | 285° |
| 2026-04-24 07:49 | -7.85423 | 109.89054 | 1969 ft | 320 kts | 256° |
| 2026-04-24 07:50 | -7.86407 | 109.87072 | 2136 ft | 318 kts | 229° |
| 2026-04-24 07:50 | -7.88169 | 109.85830 | 2076 ft | 306 kts | 200° |
| 2026-04-24 07:50 | -7.90205 | 109.85508 | 2048 ft | 290 kts | 176° |
| 2026-04-24 07:50 | -7.92117 | 109.85936 | 2037 ft | 276 kts | 157° |
| 2026-04-24 07:51 | -7.93718 | 109.86900 | 2048 ft | 261 kts | 144° |
| 2026-04-24 07:51 | -7.95156 | 109.87969 | 2042 ft | 255 kts | 143° |
| 2026-04-24 07:51 | -7.96566 | 109.89042 | 2050 ft | 253 kts | 143° |
| 2026-04-24 07:51 | -7.97971 | 109.90110 | 2050 ft | 253 kts | 143° |
| 2026-04-24 07:52 | -7.99376 | 109.91173 | 2048 ft | 252 kts | 143° |
| 2026-04-24 07:52 | -8.00780 | 109.92231 | 2050 ft | 252 kts | 143° |
| 2026-04-24 07:52 | -8.02182 | 109.93285 | 2051 ft | 251 kts | 143° |
| 2026-04-24 07:52 | -8.03586 | 109.94337 | 2054 ft | 252 kts | 143° |
| 2026-04-24 07:53 | -8.04996 | 109.95392 | 2054 ft | 253 kts | 143° |
| 2026-04-24 07:53 | -8.06426 | 109.96462 | 2189 ft | 259 kts | 143° |
| 2026-04-24 07:53 | -8.07885 | 109.97552 | 2162 ft | 262 kts | 143° |
| 2026-04-24 07:53 | -8.09342 | 109.98650 | 2123 ft | 259 kts | 140° |
| 2026-04-24 07:54 | -8.10403 | 110.00050 | 2114 ft | 250 kts | 110° |
| 2026-04-24 07:54 | -8.10532 | 110.01739 | 2108 ft | 241 kts | 73° |
| 2026-04-24 07:54 | -8.09632 | 110.03116 | 2117 ft | 238 kts | 35° |
| 2026-04-24 07:54 | -8.08117 | 110.03794 | 2141 ft | 242 kts | 18° |
| 2026-04-24 07:55 | -8.06513 | 110.04355 | 2132 ft | 245 kts | 21° |
| 2026-04-24 07:55 | -8.05175 | 110.05369 | 2113 ft | 244 kts | 59° |
| 2026-04-24 07:55 | -8.04724 | 110.06989 | 2137 ft | 241 kts | 84° |
| 2026-04-24 07:55 | -8.04458 | 110.08658 | 2122 ft | 242 kts | 75° |
| 2026-04-24 07:56 | -8.03862 | 110.10231 | 2114 ft | 238 kts | 63° |
| 2026-04-24 07:56 | -8.03044 | 110.11651 | 2041 ft | 230 kts | 56° |
| 2026-04-24 07:56 | -8.02136 | 110.12954 | 1993 ft | 223 kts | 54° |
| 2026-04-24 07:56 | -8.01212 | 110.14183 | 1977 ft | 218 kts | 39° |
| 2026-04-24 07:57 | -7.99956 | 110.15016 | 2007 ft | 216 kts | 32° |
| 2026-04-24 07:57 | -7.98726 | 110.15835 | 2023 ft | 207 kts | 34° |
| 2026-04-24 07:57 | -7.97536 | 110.16545 | 1889 ft | 197 kts | 17° |
| 2026-04-24 07:57 | -7.96234 | 110.16569 | 1744 ft | 178 kts | 341° |
| 2026-04-24 07:58 | -7.95227 | 110.15986 | 1625 ft | 159 kts | 312° |
| 2026-04-24 07:58 | -7.94578 | 110.15120 | 1575 ft | 158 kts | 304° |
| 2026-04-24 07:58 | -7.93942 | 110.14223 | 1414 ft | 155 kts | 304° |
| 2026-04-24 07:58 | -7.93369 | 110.13346 | 1319 ft | 148 kts | 295° |
| 2026-04-24 07:59 | -7.92955 | 110.12349 | 1137 ft | 156 kts | 289° |
| 2026-04-24 07:59 | -7.92588 | 110.11359 | 919 ft | 145 kts | 288° |
| 2026-04-24 07:59 | -7.92236 | 110.10403 | 789 ft | 145 kts | 290° |
| 2026-04-24 07:59 | -7.91888 | 110.09446 | 576 ft | 143 kts | 288° |
| 2026-04-24 08:00 | -7.91546 | 110.08506 | 370 ft | 142 kts | 290° |
| 2026-04-24 08:00 | -7.91201 | 110.07593 | 182 ft | 136 kts | 288° |
| 2026-04-24 08:00 | -7.90888 | 110.06722 | 47 ft | 125 kts | 285° |
| 2026-04-24 08:00 | -7.90629 | 110.05986 | 46 ft | 99 kts | 290° |
| 2026-04-24 08:01 | -7.90445 | 110.05485 | 45 ft | 47 kts | 290° |
| 2026-04-24 08:01 | -7.90286 | 110.05232 | 41 ft | 33 kts | 319° |
| 2026-04-24 08:01 | -7.90265 | 110.05214 | 40 ft | 0 kts | 320° |
| 2026-04-24 08:02 | -7.90260 | 110.05210 | 40 ft | 3 kts | 320° |
| 2026-04-24 08:02 | -7.90216 | 110.05183 | 39 ft | 10 kts | 345° |
| 2026-04-24 08:02 | -7.90168 | 110.05214 | 40 ft | 9 kts | 82° |
| 2026-04-24 08:02 | -7.90185 | 110.05272 | 39 ft | 9 kts | 110° |
| 2026-04-24 08:03 | -7.90207 | 110.05329 | 42 ft | 10 kts | 111° |
| 2026-04-24 08:03 | -7.90235 | 110.05404 | 43 ft | 14 kts | 111° |
| 2026-04-24 08:03 | -7.90271 | 110.05505 | 44 ft | 14 kts | 109° |
| 2026-04-24 08:03 | -7.90293 | 110.05565 | 44 ft | 8 kts | 114° |
| 2026-04-24 08:04 | -7.90319 | 110.05630 | 45 ft | 12 kts | 108° |
| 2026-04-24 08:04 | -7.90346 | 110.05720 | 47 ft | 10 kts | 98° |
| 2026-04-24 08:04 | -7.90298 | 110.05763 | 44 ft | 13 kts | 20° |
| 2026-04-24 08:04 | -7.90225 | 110.05788 | 41 ft | 9 kts | 21° |
| 2026-04-24 08:05 | -7.90178 | 110.05815 | 40 ft | 6 kts | 26° |
| 2026-04-24 08:05 | -7.90131 | 110.05833 | 39 ft | 7 kts | 20° |
| 2026-04-24 08:05 | -7.90121 | 110.05837 | 40 ft | 0 kts | 20° |
| 2026-04-24 08:07 | -7.90122 | 110.05837 | 40 ft | 0 kts | 20° |